createdAt,value
2019-01-05T00:02:38.677Z,74.57
2019-01-05T00:05:12.604Z,74.54
2019-01-05T00:07:50.701Z,74.67
2019-01-05T00:11:23.491Z,74.48
2019-01-05T00:14:05.539Z,73.92
2019-01-05T00:16:41.750Z,74.06
2019-01-05T00:20:18.788Z,73.91
2019-01-05T00:23:51.707Z,73.46
2019-01-05T00:27:23.978Z,73.65
2019-01-05T00:30:01.177Z,73.19
2019-01-05T00:33:35.774Z,73.23
2019-01-05T00:36:32.658Z,73.37
2019-01-05T00:39:06.944Z,73.37
2019-01-05T00:41:41.667Z,73.48
2019-01-05T00:44:21.816Z,73.04
2019-01-05T00:46:56.068Z,72.99
2019-01-05T00:49:41.544Z,73.16
2019-01-05T00:52:15.941Z,73.08
2019-01-05T00:55:47.603Z,72.94
2019-01-05T01:00:28.778Z,73.16
2019-01-05T01:03:02.703Z,72.72
2019-01-05T01:06:08.214Z,72.90
2019-01-05T01:08:42.348Z,72.95
2019-01-05T01:11:23.441Z,72.74
2019-01-05T01:16:01.390Z,72.77
2019-01-05T01:18:37.579Z,72.77
2019-01-05T01:21:11.710Z,72.95
2019-01-05T01:23:45.883Z,72.66
2019-01-05T01:27:24.613Z,72.96
2019-01-05T01:29:58.970Z,72.68
2019-01-05T01:32:39.155Z,72.58
2019-01-05T01:35:45.726Z,72.73
2019-01-05T01:38:25.964Z,72.70
2019-01-05T01:41:01.290Z,72.51
2019-01-05T01:43:39.292Z,72.67
2019-01-05T01:46:17.462Z,72.74
2019-01-05T01:48:51.683Z,72.86
2019-01-05T01:52:30.186Z,72.95
2019-01-05T01:55:06.106Z,72.72
2019-01-05T01:57:46.299Z,72.76
2019-01-05T02:00:21.804Z,72.53
2019-01-05T02:03:10.125Z,72.63
2019-01-05T02:06:47.556Z,72.64
2019-01-05T02:09:37.802Z,72.93
2019-01-05T02:12:14.083Z,72.71
2019-01-05T02:14:51.404Z,72.69
2019-01-05T02:17:34.731Z,73.05
2019-01-05T02:20:34.822Z,72.52
2019-01-05T02:29:25.384Z,72.59
2019-01-05T02:33:17.363Z,72.34
2019-01-05T02:37:11.930Z,72.31
2019-01-05T02:50:01.821Z,72.70
2019-01-05T02:52:49.474Z,72.35
2019-01-05T02:57:36.900Z,72.49
2019-01-05T03:00:40.056Z,72.19
2019-01-05T03:04:26.914Z,72.20
2019-01-05T03:07:14.850Z,72.34
2019-01-05T03:10:15.495Z,72.33
2019-01-05T03:13:09.091Z,72.74
2019-01-05T03:15:56.675Z,72.53
2019-01-05T03:18:45.493Z,72.87
2019-01-05T03:22:34.498Z,72.67
2019-01-05T03:25:34.511Z,72.57
2019-01-05T03:28:39.349Z,72.73
2019-01-05T03:31:40.270Z,72.92
2019-01-05T03:38:37.009Z,72.85
2019-01-05T03:42:56.544Z,72.60
2019-01-05T03:45:42.532Z,72.27
2019-01-05T03:48:41.152Z,72.72
2019-01-05T03:51:25.212Z,72.68
2019-01-05T03:58:08.557Z,72.54
2019-01-05T04:00:59.432Z,72.53
2019-01-05T04:05:56.994Z,72.81
2019-01-05T04:09:20.563Z,72.73
2019-01-05T04:12:23.651Z,72.51
2019-01-05T04:17:12.496Z,72.62
2019-01-05T04:20:18.207Z,72.33
2019-01-05T04:25:06.535Z,72.81
2019-01-05T04:27:53.223Z,72.49
2019-01-05T04:30:39.253Z,72.62
2019-01-05T04:35:25.224Z,72.98
2019-01-05T04:38:12.226Z,72.80
2019-01-05T04:41:05.757Z,72.88
2019-01-05T04:43:54.763Z,73.00
2019-01-05T04:47:29.969Z,72.90
2019-01-05T04:53:21.309Z,72.78
2019-01-05T04:56:55.568Z,72.89
2019-01-05T05:00:46.176Z,72.91
2019-01-05T05:06:37.010Z,72.98
2019-01-05T05:09:22.869Z,72.56
2019-01-05T05:12:17.424Z,73.13
2019-01-05T05:16:03.409Z,72.89
2019-01-05T07:48:00.821Z,73.74
2019-01-05T07:50:45.828Z,73.54
2019-01-05T07:53:28.873Z,73.11
2019-01-05T07:56:22.725Z,73.70
2019-01-05T08:00:19.436Z,73.28
2019-01-05T08:03:12.139Z,73.73
2019-01-05T08:08:01.749Z,73.55
2019-01-05T08:10:46.989Z,73.19
2019-01-05T08:17:33.175Z,73.54
2019-01-05T08:21:25.296Z,73.35
2019-01-05T08:24:13.860Z,73.10
2019-01-05T08:30:03.342Z,73.46
2019-01-05T08:32:48.476Z,73.37
2019-01-05T08:36:36.573Z,73.43
2019-01-05T08:41:28.205Z,73.40
2019-01-05T08:46:36.789Z,73.12
2019-01-05T08:51:23.718Z,73.21
2019-01-05T08:57:15.070Z,73.30
2019-01-05T09:00:30.295Z,73.27
2019-01-05T09:03:15.056Z,73.54
2019-01-05T09:06:04.283Z,73.58
2019-01-05T09:11:08.199Z,73.58
2019-01-05T09:14:53.394Z,73.45
2019-01-05T09:17:41.083Z,73.30
2019-01-05T09:20:32.176Z,73.64
2019-01-05T09:23:20.920Z,73.53
2019-01-05T09:26:04.977Z,73.33
2019-01-05T09:29:31.897Z,73.63
2019-01-05T09:34:22.196Z,73.70
2019-01-05T09:39:18.668Z,73.46
2019-01-05T09:42:10.639Z,73.41
2019-01-05T09:44:57.800Z,73.43
2019-01-05T09:48:35.597Z,73.48
2019-01-05T09:51:22.595Z,73.37
2019-01-05T09:55:13.655Z,73.36
2019-01-05T09:59:11.411Z,73.34
2019-01-05T10:02:03.167Z,73.41
2019-01-05T10:09:01.347Z,72.91
2019-01-05T10:13:04.722Z,73.45
2019-01-05T10:15:52.860Z,73.08
2019-01-05T10:18:47.554Z,73.65
2019-01-05T10:21:36.379Z,73.10
2019-01-05T10:24:22.732Z,73.05
2019-01-05T10:29:13.826Z,73.14
2019-01-05T10:32:32.254Z,73.17
2019-01-05T10:35:43.316Z,72.69
2019-01-05T10:38:41.020Z,73.11
2019-01-05T10:41:27.573Z,72.79
2019-01-05T10:47:20.931Z,73.11
2019-01-05T10:52:12.076Z,72.88
2019-01-05T10:55:29.400Z,72.81
2019-01-05T11:00:51.328Z,72.93
2019-01-05T11:04:43.801Z,72.94
2019-01-05T11:08:27.364Z,72.81
2019-01-05T11:13:28.630Z,72.30
2019-01-05T11:16:26.303Z,72.41
2019-01-05T11:19:47.819Z,72.25
2019-01-05T11:25:36.111Z,72.50
2019-01-05T11:29:30.741Z,72.10
2019-01-05T11:32:32.546Z,72.35
2019-01-05T11:36:17.409Z,72.26
2019-01-05T11:39:04.128Z,72.32
2019-01-05T11:45:00.757Z,72.16
2019-01-05T11:48:06.280Z,71.99
2019-01-05T11:51:54.207Z,71.50
2019-01-05T11:54:38.920Z,71.82
2019-01-05T11:58:25.531Z,71.67
2019-01-05T12:03:26.438Z,71.62
2019-01-05T12:08:14.884Z,71.74
2019-01-05T12:11:33.783Z,71.63
2019-01-05T12:16:24.644Z,71.48
2019-01-05T12:20:06.994Z,71.47
2019-01-05T12:25:13.158Z,71.53
2019-01-05T12:28:06.734Z,71.50
2019-01-05T12:33:01.129Z,71.18
2019-01-05T12:36:02.294Z,71.47
2019-01-05T12:39:34.408Z,71.25
2019-01-05T12:43:28.111Z,71.37
2019-01-05T12:46:35.608Z,71.23
2019-01-05T12:49:32.235Z,71.30
2019-01-05T12:54:40.674Z,71.58
2019-01-05T13:00:03.763Z,71.18
2019-01-05T13:08:02.616Z,71.00
2019-01-05T13:10:58.189Z,71.04
2019-01-05T13:13:47.063Z,71.04
2019-01-05T13:16:38.000Z,71.08
2019-01-05T13:20:25.483Z,71.34
2019-01-05T13:23:27.540Z,71.09
2019-01-05T13:28:25.033Z,71.24
2019-01-05T13:32:47.924Z,71.32
2019-01-05T13:35:36.760Z,71.32
2019-01-05T13:41:01.564Z,71.30
2019-01-05T13:44:37.728Z,71.27
2019-01-05T13:47:29.378Z,71.05
2019-01-05T13:51:19.954Z,71.11
2019-01-05T13:54:09.841Z,71.40
2019-01-05T13:56:49.491Z,71.31
2019-01-05T13:59:24.063Z,71.32
2019-01-05T14:02:30.638Z,71.06
2019-01-05T14:07:12.338Z,71.27
2019-01-05T14:09:49.372Z,71.14
2019-01-05T14:12:23.561Z,71.06
2019-01-05T14:14:58.409Z,71.22
2019-01-05T14:17:47.624Z,70.78
2019-01-05T14:20:21.798Z,70.91
2019-01-05T14:23:58.260Z,70.95
2019-01-05T14:26:34.261Z,70.95
2019-01-05T14:31:16.439Z,70.97
2019-01-05T14:33:50.466Z,71.11
2019-01-05T14:36:28.521Z,70.98
2019-01-05T14:39:04.443Z,70.90
2019-01-05T14:41:53.475Z,70.79
2019-01-05T14:44:27.852Z,70.91
2019-01-05T14:47:02.521Z,71.05
2019-01-05T14:49:36.775Z,71.10
2019-01-05T14:54:17.273Z,71.03
2019-01-05T14:58:54.063Z,70.94
2019-01-05T15:01:28.114Z,70.99
2019-01-05T15:04:02.185Z,70.82
2019-01-05T15:06:37.262Z,70.77
2019-01-05T15:10:14.778Z,70.90
2019-01-05T15:13:06.259Z,70.99
2019-01-05T15:15:40.271Z,71.14
2019-01-05T15:18:14.716Z,71.25
2019-01-05T15:20:49.918Z,71.04
2019-01-05T15:23:23.158Z,71.22
2019-01-05T15:26:01.193Z,71.19
2019-01-05T15:28:35.293Z,71.29
2019-01-05T15:31:14.674Z,71.31
2019-01-05T15:33:48.826Z,71.22
2019-01-05T15:36:23.141Z,71.03
2019-01-05T15:41:02.270Z,71.05
2019-01-05T15:43:44.355Z,71.19
2019-01-05T15:46:23.417Z,71.11
2019-01-05T15:48:56.507Z,71.18
2019-01-05T15:51:33.952Z,71.37
2019-01-05T15:54:14.964Z,71.23
2019-01-05T15:58:53.080Z,71.70
2019-01-05T16:02:30.338Z,71.41
2019-01-05T16:05:09.306Z,71.38
2019-01-05T16:08:01.241Z,71.58
2019-01-05T16:10:34.745Z,71.93
2019-01-05T16:13:11.966Z,71.76
2019-01-05T16:17:51.840Z,71.64
2019-01-05T16:21:27.664Z,71.83
2019-01-05T16:24:38.243Z,71.89
2019-01-05T16:28:12.952Z,71.83
2019-01-05T16:30:53.207Z,71.69
2019-01-05T16:33:27.313Z,71.94
2019-01-05T16:36:34.888Z,71.75
2019-01-05T16:39:09.184Z,71.72
2019-01-05T16:42:42.363Z,71.78
2019-01-05T16:47:20.216Z,71.75
2019-01-05T16:51:57.137Z,71.99
2019-01-05T16:54:41.815Z,71.71
2019-01-05T16:57:17.698Z,72.18
2019-01-05T17:00:55.534Z,71.91
2019-01-05T17:04:28.954Z,72.18
2019-01-05T17:07:04.005Z,71.99
2019-01-05T17:10:38.694Z,71.89
2019-01-05T17:14:15.383Z,71.87
2019-01-05T17:16:56.390Z,71.87
2019-01-05T17:19:36.478Z,71.83
2019-01-05T17:22:06.763Z,71.90
2019-01-05T17:25:43.517Z,72.21
2019-01-05T17:28:17.911Z,72.14
2019-01-05T17:31:58.883Z,72.20
2019-01-05T17:34:35.384Z,72.14
2019-01-05T17:37:12.239Z,72.11
2019-01-05T17:39:46.274Z,72.09
2019-01-05T17:43:20.227Z,72.36
2019-01-05T17:45:54.576Z,72.09
2019-01-05T17:48:30.514Z,72.18
2019-01-05T17:51:04.717Z,72.41
2019-01-05T17:53:41.556Z,72.19
2019-01-05T17:56:17.608Z,72.42
2019-01-05T17:59:55.183Z,72.47
2019-01-05T18:03:32.317Z,72.27
2019-01-05T18:12:33.827Z,72.50
2019-01-05T18:15:08.114Z,72.28
2019-01-05T18:18:00.223Z,72.27
2019-01-05T18:20:34.615Z,72.50
2019-01-05T18:23:39.936Z,72.40
2019-01-05T18:28:18.651Z,72.64
2019-01-05T18:30:52.856Z,72.63
2019-01-05T18:35:30.102Z,72.24
2019-01-05T18:38:06.235Z,72.50
2019-01-05T18:41:14.838Z,72.40
2019-01-05T18:43:56.051Z,72.74
2019-01-05T18:46:30.245Z,72.58
2019-01-05T18:49:07.268Z,72.62
2019-01-05T18:53:44.617Z,72.75
2019-01-05T18:56:25.550Z,72.73
2019-01-05T18:59:07.605Z,72.83
2019-01-05T19:03:50.440Z,72.48
2019-01-05T19:08:29.945Z,72.68
2019-01-05T19:11:04.222Z,72.76
2019-01-05T19:20:08.197Z,72.82
2019-01-05T19:22:42.349Z,72.74
2019-01-05T19:25:28.674Z,72.47
2019-01-05T19:29:02.589Z,72.83
2019-01-05T19:32:35.405Z,72.83
2019-01-05T19:35:40.915Z,72.75
2019-01-05T19:38:15.214Z,72.95
2019-01-05T19:40:49.738Z,73.35
2019-01-05T19:43:23.820Z,73.03
2019-01-05T19:48:05.274Z,73.07
2019-01-05T19:52:42.394Z,73.09
2019-01-05T19:57:19.817Z,73.28
2019-01-05T19:59:53.916Z,73.09
2019-01-05T20:02:38.011Z,73.15
2019-01-05T20:05:12.344Z,73.02
2019-01-05T20:07:48.312Z,73.00
2019-01-05T20:10:23.617Z,73.00
2019-01-05T20:12:58.021Z,73.03
2019-01-05T20:17:38.453Z,73.33
2019-01-05T20:22:16.039Z,73.19
2019-01-05T20:25:00.078Z,73.37
2019-01-05T20:28:06.803Z,73.10
2019-01-05T20:30:40.948Z,73.09
2019-01-05T20:33:15.131Z,73.49
2019-01-05T20:35:49.297Z,73.36
2019-01-05T20:38:23.486Z,73.29
2019-01-05T20:43:01.320Z,73.35
2019-01-05T20:45:35.750Z,73.42
2019-01-05T20:48:10.027Z,73.37
2019-01-05T20:50:49.576Z,73.70
2019-01-05T20:53:23.902Z,73.79
2019-01-05T20:55:57.937Z,73.63
2019-01-05T20:58:33.939Z,73.78
2019-01-05T21:01:22.602Z,73.60
2019-01-05T21:03:58.755Z,73.96
2019-01-05T21:06:33.075Z,73.90
2019-01-05T21:11:10.072Z,73.69
2019-01-05T21:13:44.292Z,73.58
2019-01-05T21:16:27.134Z,73.46
2019-01-05T21:19:02.561Z,73.51
2019-01-05T21:21:41.570Z,73.87
2019-01-05T21:25:17.720Z,73.76
2019-01-05T21:29:54.483Z,73.58
2019-01-05T21:32:28.745Z,73.71
2019-01-05T21:35:03.073Z,73.62
2019-01-05T21:37:46.127Z,73.46
2019-01-05T21:40:20.522Z,73.75
2019-01-05T21:43:01.043Z,73.92
2019-01-05T21:45:38.231Z,73.55
2019-01-05T21:48:18.186Z,73.97
2019-01-05T21:51:00.383Z,73.91
2019-01-05T21:55:37.110Z,73.71
2019-01-05T21:58:20.436Z,73.87
2019-01-05T22:00:54.376Z,73.68
2019-01-05T22:03:33.308Z,73.59
2019-01-05T22:07:06.270Z,73.95
2019-01-05T22:09:40.780Z,73.92
2019-01-05T22:12:15.121Z,73.74
2019-01-05T22:14:52.220Z,73.80
2019-01-05T22:17:36.556Z,73.97
2019-01-05T22:20:13.177Z,74.08
2019-01-05T22:24:50.919Z,73.86
2019-01-05T22:27:25.121Z,74.08
2019-01-05T22:29:59.044Z,73.92
2019-01-05T22:32:33.099Z,74.07
2019-01-05T22:35:08.174Z,74.20
2019-01-05T22:37:44.858Z,74.23
2019-01-05T22:41:16.670Z,74.31
2019-01-05T22:43:50.628Z,74.27
2019-01-05T22:46:25.027Z,74.06
2019-01-05T22:49:58.001Z,74.17
2019-01-05T22:54:40.581Z,74.26
2019-01-05T22:57:14.769Z,74.14
2019-01-05T22:59:51.756Z,74.05
2019-01-05T23:04:29.531Z,74.42
2019-01-05T23:07:03.493Z,74.37
2019-01-05T23:09:37.678Z,74.37
2019-01-05T23:12:12.019Z,74.10
2019-01-05T23:14:46.124Z,74.55
2019-01-05T23:19:27.946Z,74.58
2019-01-05T23:22:01.926Z,74.20
2019-01-05T23:24:36.087Z,74.21
2019-01-05T23:27:26.123Z,74.36
2019-01-05T23:30:00.267Z,74.83
2019-01-05T23:33:07.776Z,74.72
2019-01-05T23:35:41.974Z,74.72
2019-01-05T23:38:15.835Z,74.76
2019-01-05T23:40:49.878Z,75.06
2019-01-05T23:43:25.404Z,74.62
2019-01-05T23:46:01.531Z,74.60
2019-01-05T23:48:36.046Z,74.95
2019-01-05T23:52:07.869Z,74.71
2019-01-05T23:54:43.758Z,74.71
2019-01-05T23:58:19.360Z,75.03
